DNO773 LGKS-LGKP

Flight info

Callsign DNO773
Flight time 0h 4m
Altitude 3000
Route DCT
Aircraft B36T/L-BDFGLORY/S

Departure

Time 2026-04-20 19:06
Airport Kasos Airport (LGKS)

Arrival

Time 2026-04-20 19:10
Airport Karpathos Airport (LGKP)
Time Latitude Longitude Altitude Speed Heading
2026-04-20 19:00 35.42101 26.91281 37 ft 0 kts 288°
2026-04-20 19:04 35.42116 26.91245 39 ft 2 kts 286°
2026-04-20 19:05 35.42121 26.91178 40 ft 8 kts 315°
2026-04-20 19:05 35.42133 26.91318 38 ft 57 kts 91°
2026-04-20 19:05 35.42207 26.92129 238 ft 117 kts 58°
2026-04-20 19:05 35.42592 26.93142 560 ft 152 kts 84°
2026-04-20 19:06 35.42264 26.94441 901 ft 165 kts 111°
2026-04-20 19:06 35.41905 26.95723 1480 ft 165 kts 89°
2026-04-20 19:06 35.42273 26.97032 1859 ft 163 kts 49°
2026-04-20 19:06 35.42889 26.98223 2364 ft 166 kts 69°
2026-04-20 19:07 35.42852 26.99681 2765 ft 184 kts 105°
2026-04-20 19:07 35.42331 27.01114 2957 ft 186 kts 108°
2026-04-20 19:07 35.42087 27.02659 2961 ft 184 kts 86°
2026-04-20 19:07 35.42110 27.04237 2874 ft 186 kts 80°
2026-04-20 19:08 35.42393 27.05758 2627 ft 181 kts 63°
2026-04-20 19:08 35.43229 27.08126 1689 ft 139 kts 61°
2026-04-20 19:08 35.43491 27.09159 1337 ft 108 kts 65°
2026-04-20 19:09 35.43645 27.10064 1022 ft 109 kts 72°
2026-04-20 19:09 35.43681 27.10985 725 ft 107 kts 89°
2026-04-20 19:09 35.43526 27.11826 419 ft 97 kts 108°
2026-04-20 19:09 35.43212 27.12607 215 ft 103 kts 120°
2026-04-20 19:10 35.42840 27.13292 80 ft 90 kts 125°
2026-04-20 19:10 35.42509 27.13888 52 ft 73 kts 124°
2026-04-20 19:10 35.42430 27.14055 52 ft 3 kts 36°
2026-04-20 19:10 35.42461 27.14081 53 ft 0 kts 53°